createdAt,value
2019-02-18T00:01:03.483Z,36.68
2019-02-18T00:03:32.349Z,36.73
2019-02-18T00:06:01.291Z,36.74
2019-02-18T00:08:30.261Z,36.83
2019-02-18T00:10:59.088Z,36.84
2019-02-18T00:13:27.850Z,36.94
2019-02-18T00:15:56.753Z,36.96
2019-02-18T00:18:25.582Z,36.99
2019-02-18T00:20:54.311Z,37.06
2019-02-18T00:23:23.200Z,37.10
2019-02-18T00:25:51.991Z,37.11
2019-02-18T00:28:20.966Z,37.18
2019-02-18T00:30:49.915Z,37.22
2019-02-18T00:33:18.865Z,37.25
2019-02-18T00:35:47.665Z,37.28
2019-02-18T00:38:16.496Z,37.31
2019-02-18T00:40:45.382Z,37.36
2019-02-18T00:43:14.260Z,37.40
2019-02-18T00:45:43.214Z,37.40
2019-02-18T00:48:12.086Z,37.45
2019-02-18T00:50:40.944Z,37.50
2019-02-18T00:53:09.703Z,37.53
2019-02-18T00:55:38.529Z,37.61
2019-02-18T00:58:07.244Z,37.59
2019-02-18T01:00:36.052Z,37.63
2019-02-18T01:03:05.049Z,37.66
2019-02-18T01:05:33.883Z,37.68
2019-02-18T01:08:02.776Z,37.70
2019-02-18T01:10:31.672Z,37.67
2019-02-18T01:13:00.541Z,37.71
2019-02-18T01:15:29.411Z,37.72
2019-02-18T01:17:58.332Z,37.68
2019-02-18T01:20:27.127Z,37.68
2019-02-18T01:22:56.047Z,37.68
2019-02-18T01:25:24.860Z,37.68
2019-02-18T01:27:53.806Z,37.66
2019-02-18T01:30:22.536Z,37.67
2019-02-18T01:32:51.326Z,37.68
2019-02-18T01:35:20.142Z,37.67
2019-02-18T01:37:48.998Z,37.67
2019-02-18T01:40:17.836Z,37.68
2019-02-18T01:42:46.703Z,37.70
2019-02-18T01:45:15.552Z,37.70
2019-02-18T01:47:44.417Z,37.75
2019-02-18T01:50:14.446Z,37.74
2019-02-18T01:52:43.311Z,37.76
2019-02-18T01:55:12.891Z,37.77
2019-02-18T01:57:41.859Z,37.80
2019-02-18T02:00:13.309Z,37.87
2019-02-18T02:02:42.154Z,37.87
2019-02-18T02:05:11.882Z,37.90
2019-02-18T02:07:40.645Z,37.95
2019-02-18T02:10:10.817Z,37.96
2019-02-18T02:12:39.758Z,38.02
2019-02-18T02:15:12.201Z,38.04
2019-02-18T02:17:41.014Z,38.06
2019-02-18T02:20:09.763Z,38.08
2019-02-18T02:22:38.677Z,38.08
2019-02-18T02:25:07.457Z,38.15
2019-02-18T02:27:36.252Z,38.19
2019-02-18T02:30:05.253Z,38.23
2019-02-18T02:32:34.282Z,38.23
2019-02-18T02:35:03.080Z,38.28
2019-02-18T02:37:31.914Z,38.33
2019-02-18T02:40:00.923Z,38.37
2019-02-18T02:42:29.684Z,38.43
2019-02-18T02:44:58.536Z,38.44
2019-02-18T02:47:27.361Z,38.45
2019-02-18T02:49:56.180Z,38.46
2019-02-18T02:52:25.042Z,38.46
2019-02-18T02:54:53.984Z,38.45
2019-02-18T02:57:22.958Z,38.44
2019-02-18T02:59:52.018Z,38.46
2019-02-18T03:02:20.949Z,38.43
2019-02-18T03:04:49.873Z,38.47
2019-02-18T03:07:18.639Z,38.45
2019-02-18T03:09:47.399Z,38.44
2019-02-18T03:12:16.209Z,38.41
2019-02-18T03:14:45.056Z,38.42
2019-02-18T03:17:13.966Z,38.43
2019-02-18T03:19:42.809Z,38.40
2019-02-18T03:22:11.742Z,38.42
2019-02-18T03:25:28.166Z,38.40
2019-02-18T03:28:09.531Z,38.40
2019-02-18T03:30:47.899Z,38.43
2019-02-18T03:33:25.955Z,38.48
2019-02-18T03:35:54.777Z,38.50
2019-02-18T03:38:31.280Z,38.53
2019-02-18T03:41:02.759Z,38.57
2019-02-18T03:43:24.893Z,38.59
2019-02-18T03:45:53.664Z,38.65
2019-02-18T03:48:22.534Z,38.64
2019-02-18T03:50:51.394Z,38.69
2019-02-18T03:53:20.253Z,38.71
2019-02-18T03:55:49.138Z,38.74
2019-02-18T03:58:18.022Z,38.77
2019-02-18T04:00:46.978Z,38.78
2019-02-18T04:03:15.844Z,38.81
2019-02-18T04:05:44.777Z,38.83
2019-02-18T04:08:13.577Z,38.88
2019-02-18T04:10:42.403Z,38.88
2019-02-18T04:13:11.218Z,38.91
2019-02-18T04:15:40.189Z,38.92
2019-02-18T04:18:08.995Z,38.98
2019-02-18T04:20:37.883Z,38.99
2019-02-18T04:23:06.757Z,39.04
2019-02-18T04:25:35.672Z,39.00
2019-02-18T04:28:04.400Z,38.99
2019-02-18T04:30:33.333Z,39.00
2019-02-18T04:33:02.209Z,38.96
2019-02-18T04:35:31.022Z,38.95
2019-02-18T04:37:59.801Z,38.93
2019-02-18T04:40:28.686Z,38.94
2019-02-18T04:42:57.598Z,38.91
2019-02-18T04:45:26.476Z,38.88
2019-02-18T04:47:55.277Z,38.82
2019-02-18T04:50:24.107Z,38.80
2019-02-18T04:52:52.910Z,38.78
2019-02-18T04:55:21.824Z,38.74
2019-02-18T04:57:50.688Z,38.75
2019-02-18T05:00:19.498Z,38.75
2019-02-18T05:02:48.342Z,38.75
2019-02-18T05:05:17.276Z,38.75
2019-02-18T05:07:46.075Z,38.73
2019-02-18T05:10:14.901Z,38.79
2019-02-18T05:12:43.710Z,38.81
2019-02-18T05:15:12.540Z,38.83
2019-02-18T05:17:41.331Z,38.86
2019-02-18T05:20:10.261Z,38.92
2019-02-18T05:22:39.022Z,38.98
2019-02-18T05:25:07.940Z,39.01
2019-02-18T05:27:36.786Z,39.03
2019-02-18T05:30:06.698Z,39.06
2019-02-18T05:32:35.549Z,39.11
2019-02-18T05:35:04.372Z,39.13
2019-02-18T05:37:33.355Z,39.18
2019-02-18T05:40:02.214Z,39.19
2019-02-18T05:42:31.097Z,39.23
2019-02-18T05:45:00.121Z,39.25
2019-02-18T05:47:29.213Z,39.28
2019-02-18T05:49:58.053Z,39.31
2019-02-18T05:52:26.887Z,39.29
2019-02-18T05:54:55.783Z,39.28
2019-02-18T05:57:24.595Z,39.31
2019-02-18T05:59:53.471Z,39.31
2019-02-18T06:02:22.750Z,39.32
2019-02-18T06:04:51.484Z,39.32
2019-02-18T06:07:20.334Z,39.34
2019-02-18T06:09:49.232Z,39.28
2019-02-18T06:12:18.179Z,39.22
2019-02-18T06:14:46.910Z,39.21
2019-02-18T06:17:15.750Z,39.20
2019-02-18T06:19:44.487Z,39.15
2019-02-18T06:22:13.318Z,39.10
2019-02-18T06:24:42.113Z,39.09
2019-02-18T06:27:11.008Z,39.10
2019-02-18T06:29:39.904Z,39.10
2019-02-18T06:32:08.830Z,39.10
2019-02-18T06:34:37.770Z,39.11
2019-02-18T06:37:06.619Z,39.25
2019-02-18T06:39:41.300Z,39.25
2019-02-18T06:42:06.251Z,39.26
2019-02-18T06:44:50.013Z,39.30
2019-02-18T06:47:25.315Z,39.22
2019-02-18T06:49:54.266Z,39.20
2019-02-18T06:52:23.139Z,39.12
2019-02-18T06:54:51.999Z,39.07
2019-02-18T06:57:32.404Z,38.98
2019-02-18T07:00:16.811Z,38.92
2019-02-18T07:03:04.649Z,38.88
2019-02-18T07:05:53.259Z,38.79
2019-02-18T07:08:35.709Z,38.69
2019-02-18T07:11:09.059Z,38.63
2019-02-18T07:13:37.888Z,38.48
2019-02-18T07:16:07.002Z,38.41
2019-02-18T07:18:35.885Z,38.15
2019-02-18T07:21:04.753Z,38.25
2019-02-18T07:23:33.750Z,38.25
2019-02-18T07:26:02.833Z,38.18
2019-02-18T07:28:31.867Z,38.11
2019-02-18T07:31:00.659Z,38.02
2019-02-18T07:33:29.529Z,37.95
2019-02-18T07:35:58.445Z,37.95
2019-02-18T07:38:27.271Z,37.75
2019-02-18T07:40:56.106Z,37.49
2019-02-18T07:43:25.040Z,37.25
2019-02-18T07:45:53.877Z,37.03
2019-02-18T07:48:22.760Z,32.41
2019-02-18T07:50:51.675Z,30.82
2019-02-18T07:53:20.546Z,30.15
2019-02-18T07:55:49.349Z,29.25
2019-02-18T07:58:18.261Z,29.06
2019-02-18T08:00:47.022Z,29.81
2019-02-18T08:03:15.785Z,30.81
2019-02-18T08:05:44.543Z,31.90
2019-02-18T08:08:13.271Z,33.46
2019-02-18T08:10:42.098Z,34.71
2019-02-18T08:13:10.941Z,34.86
2019-02-18T08:15:39.859Z,34.59
2019-02-18T08:18:08.687Z,34.51
2019-02-18T08:20:37.445Z,34.15
2019-02-18T08:23:06.282Z,34.00
2019-02-18T08:25:35.180Z,33.79
2019-02-18T08:28:04.130Z,33.68
2019-02-18T08:30:33.079Z,33.66
2019-02-18T08:33:01.980Z,33.39
2019-02-18T08:35:30.926Z,33.24
2019-02-18T08:37:59.744Z,33.08
2019-02-18T08:40:28.580Z,32.99
2019-02-18T08:42:57.530Z,33.26
2019-02-18T08:45:26.498Z,33.04
2019-02-18T08:47:55.438Z,32.75
2019-02-18T08:50:24.282Z,32.70
2019-02-18T08:52:53.097Z,32.40
2019-02-18T08:55:21.946Z,32.30
2019-02-18T08:57:50.929Z,32.23
2019-02-18T09:00:19.810Z,32.15
2019-02-18T09:02:48.623Z,32.11
2019-02-18T09:05:17.688Z,32.11
2019-02-18T09:07:46.549Z,32.01
2019-02-18T09:10:15.623Z,32.18
2019-02-18T09:12:44.539Z,32.07
2019-02-18T09:15:14.427Z,32.13
2019-02-18T09:17:43.386Z,32.22
2019-02-18T09:20:12.323Z,32.32
2019-02-18T09:23:00.130Z,32.38
2019-02-18T09:25:48.014Z,32.28
2019-02-18T09:28:17.130Z,32.21
2019-02-18T09:30:49.375Z,32.27
2019-02-18T09:33:18.237Z,32.02
2019-02-18T09:35:47.080Z,31.79
2019-02-18T09:38:24.279Z,31.86
2019-02-18T09:40:51.170Z,32.08
2019-02-18T09:43:17.188Z,32.22
2019-02-18T09:45:45.966Z,32.29
2019-02-18T09:48:14.876Z,32.33
2019-02-18T09:50:43.750Z,32.34
2019-02-18T09:53:12.644Z,32.42
2019-02-18T09:55:41.586Z,32.36
2019-02-18T09:58:10.545Z,32.42
2019-02-18T10:00:39.375Z,32.57
2019-02-18T10:03:08.300Z,32.50
2019-02-18T10:05:37.156Z,32.43
2019-02-18T10:08:06.127Z,32.40
2019-02-18T10:10:35.052Z,32.41
2019-02-18T10:13:03.833Z,32.33
2019-02-18T10:15:32.807Z,32.21
2019-02-18T10:18:01.668Z,32.30
2019-02-18T10:20:30.537Z,32.04
2019-02-18T10:22:59.449Z,31.91
2019-02-18T10:25:28.345Z,31.85
2019-02-18T10:27:57.123Z,31.67
2019-02-18T10:30:25.976Z,31.55
2019-02-18T10:32:54.785Z,31.31
2019-02-18T10:35:23.759Z,31.34
2019-02-18T10:37:55.233Z,31.42
2019-02-18T10:40:23.296Z,31.43
2019-02-18T10:42:52.274Z,31.49
2019-02-18T10:45:21.273Z,31.36
2019-02-18T10:47:50.260Z,31.31
2019-02-18T10:50:19.230Z,31.27
2019-02-18T10:52:48.078Z,31.26
2019-02-18T10:55:17.395Z,31.41
2019-02-18T10:57:46.277Z,31.40
2019-02-18T11:00:15.564Z,31.51
2019-02-18T11:02:44.394Z,31.44
2019-02-18T11:05:13.395Z,31.46
2019-02-18T11:07:42.406Z,31.43
2019-02-18T11:10:12.996Z,31.47
2019-02-18T11:12:41.845Z,31.49
2019-02-18T11:15:11.998Z,31.54
2019-02-18T11:17:40.880Z,31.61
2019-02-18T11:20:10.202Z,31.63
2019-02-18T11:22:39.036Z,31.65
2019-02-18T11:25:08.960Z,31.84
2019-02-18T11:27:37.802Z,31.84
2019-02-18T11:30:08.610Z,31.74
2019-02-18T11:32:37.781Z,31.85
2019-02-18T11:35:06.728Z,31.75
2019-02-18T11:37:35.983Z,31.71
2019-02-18T11:40:05.063Z,31.76
2019-02-18T11:42:34.051Z,31.71
2019-02-18T11:45:03.019Z,31.55
2019-02-18T11:47:31.935Z,31.52
2019-02-18T11:50:00.939Z,31.42
2019-02-18T11:52:29.821Z,31.52
2019-02-18T11:54:58.729Z,31.56
2019-02-18T11:57:27.679Z,31.43
2019-02-18T11:59:56.578Z,31.59
2019-02-18T12:02:25.663Z,31.47
2019-02-18T12:04:54.571Z,31.44
2019-02-18T12:07:23.605Z,31.34
2019-02-18T12:09:52.632Z,31.38
2019-02-18T12:12:21.486Z,31.43
2019-02-18T12:14:50.469Z,31.25
2019-02-18T12:17:20.861Z,31.24
2019-02-18T12:19:49.880Z,31.20
2019-02-18T12:22:18.812Z,31.21
2019-02-18T12:24:47.640Z,31.14
2019-02-18T12:27:16.589Z,31.12
2019-02-18T12:29:45.541Z,31.13
2019-02-18T12:32:14.814Z,31.24
2019-02-18T12:34:43.649Z,31.15
2019-02-18T12:37:12.527Z,31.14
2019-02-18T12:39:41.396Z,31.22
2019-02-18T12:42:10.261Z,31.18
2019-02-18T12:44:39.124Z,31.15
2019-02-18T12:47:08.534Z,31.23
2019-02-18T12:49:37.381Z,31.34
2019-02-18T12:52:06.317Z,31.45
2019-02-18T12:54:35.319Z,31.75
2019-02-18T12:57:04.297Z,31.75
2019-02-18T12:59:33.409Z,31.79
2019-02-18T13:02:02.526Z,31.82
2019-02-18T13:04:32.092Z,31.77
2019-02-18T13:07:01.238Z,31.79
2019-02-18T13:09:30.105Z,31.87
2019-02-18T13:11:59.427Z,31.85
2019-02-18T13:14:28.397Z,31.86
2019-02-18T13:16:57.236Z,31.94
2019-02-18T13:19:26.146Z,31.90
2019-02-18T13:21:54.988Z,31.77
2019-02-18T13:24:23.921Z,31.84
2019-02-18T13:26:52.716Z,31.83
2019-02-18T13:29:21.581Z,31.86
2019-02-18T13:31:50.397Z,31.89
2019-02-18T13:34:19.299Z,31.91
2019-02-18T13:36:48.217Z,31.93
2019-02-18T13:39:17.417Z,31.96
2019-02-18T13:41:46.327Z,31.99
2019-02-18T13:44:15.247Z,32.04
2019-02-18T13:46:44.193Z,32.06
2019-02-18T13:49:13.099Z,32.11
2019-02-18T13:51:41.932Z,32.12
2019-02-18T13:54:10.803Z,32.11
2019-02-18T13:56:39.629Z,32.17
2019-02-18T13:59:08.675Z,32.18
2019-02-18T14:01:37.593Z,32.19
2019-02-18T14:04:06.566Z,32.19
2019-02-18T14:06:35.937Z,32.24
2019-02-18T14:09:05.260Z,32.25
2019-02-18T14:11:34.162Z,32.31
2019-02-18T14:14:02.878Z,32.38
2019-02-18T14:16:31.813Z,32.46
2019-02-18T14:19:00.917Z,32.49
2019-02-18T14:21:29.774Z,32.54
2019-02-18T14:23:58.697Z,32.57
2019-02-18T14:26:27.675Z,32.64
2019-02-18T14:28:56.550Z,32.69
2019-02-18T14:31:25.386Z,32.73
2019-02-18T14:33:54.328Z,32.75
2019-02-18T14:36:23.207Z,32.81
2019-02-18T14:38:52.158Z,32.88
2019-02-18T14:41:21.237Z,32.88
2019-02-18T14:43:50.097Z,32.95
2019-02-18T14:46:18.995Z,33.02
2019-02-18T14:48:47.883Z,33.10
2019-02-18T14:51:16.789Z,33.19
2019-02-18T14:53:45.625Z,33.20
2019-02-18T14:56:17.127Z,33.21
2019-02-18T14:58:46.067Z,33.26
2019-02-18T15:01:14.876Z,33.26
2019-02-18T15:03:45.841Z,33.35
2019-02-18T15:06:14.841Z,33.40
2019-02-18T15:08:43.853Z,33.40
2019-02-18T15:11:13.001Z,33.43
2019-02-18T15:13:41.915Z,33.44
2019-02-18T15:16:10.932Z,33.52
2019-02-18T15:18:39.928Z,33.55
2019-02-18T15:21:08.923Z,33.51
2019-02-18T15:23:37.876Z,33.69
2019-02-18T15:26:07.298Z,33.83
2019-02-18T15:28:36.222Z,33.91
2019-02-18T15:31:05.080Z,33.96
2019-02-18T15:33:34.132Z,33.99
2019-02-18T15:36:03.056Z,34.07
2019-02-18T15:38:32.014Z,34.14
2019-02-18T15:41:01.188Z,34.67
2019-02-18T15:43:30.162Z,34.55
2019-02-18T15:45:58.919Z,34.58
2019-02-18T15:48:28.011Z,34.69
2019-02-18T15:50:56.981Z,34.96
2019-02-18T15:53:25.836Z,35.03
2019-02-18T15:55:55.222Z,35.11
2019-02-18T15:58:24.073Z,35.10
2019-02-18T16:00:52.997Z,35.10
2019-02-18T16:03:21.949Z,35.17
2019-02-18T16:05:50.887Z,35.07
2019-02-18T16:08:19.727Z,35.07
2019-02-18T16:10:49.105Z,35.55
2019-02-18T16:13:18.033Z,35.27
2019-02-18T16:15:47.038Z,35.26
2019-02-18T16:18:16.056Z,35.22
2019-02-18T16:20:44.940Z,35.35
2019-02-18T16:23:14.029Z,35.63
2019-02-18T16:25:42.941Z,35.70
2019-02-18T16:28:11.886Z,35.60
2019-02-18T16:30:40.634Z,35.59
2019-02-18T16:33:09.536Z,35.70
2019-02-18T16:35:39.027Z,35.61
2019-02-18T16:38:07.926Z,35.58
2019-02-18T16:40:37.620Z,35.68
2019-02-18T16:43:06.482Z,35.82
2019-02-18T16:45:36.643Z,36.27
2019-02-18T16:48:06.260Z,36.24
2019-02-18T16:50:35.255Z,36.12
2019-02-18T16:53:04.314Z,36.28
2019-02-18T16:55:33.684Z,36.30
2019-02-18T16:58:02.921Z,36.17
2019-02-18T17:00:33.347Z,35.86
2019-02-18T17:03:02.452Z,36.10
2019-02-18T17:05:31.893Z,36.35
2019-02-18T17:08:00.895Z,36.37
2019-02-18T17:10:30.629Z,36.57
2019-02-18T17:13:07.646Z,36.51
2019-02-18T17:15:30.477Z,37.02
2019-02-18T17:17:59.704Z,36.99
2019-02-18T17:20:28.748Z,37.54
2019-02-18T17:22:58.646Z,36.97
2019-02-18T17:25:28.301Z,37.47
2019-02-18T17:27:57.668Z,37.38
2019-02-18T17:30:27.146Z,37.31
2019-02-18T17:32:56.290Z,37.31
2019-02-18T17:35:26.020Z,37.27
2019-02-18T17:37:55.286Z,37.26
2019-02-18T17:40:25.224Z,37.31
2019-02-18T17:42:54.342Z,37.36
2019-02-18T17:45:24.102Z,37.27
2019-02-18T17:47:53.338Z,37.41
2019-02-18T17:50:22.327Z,37.30
2019-02-18T17:52:51.479Z,37.23
2019-02-18T17:55:20.812Z,37.18
2019-02-18T17:57:50.596Z,37.34
2019-02-18T18:00:21.639Z,37.17
2019-02-18T18:02:51.636Z,37.20
2019-02-18T18:05:20.848Z,37.88
2019-02-18T18:07:50.030Z,37.66
2019-02-18T18:10:19.350Z,37.65
2019-02-18T18:12:48.576Z,38.15
2019-02-18T18:15:17.817Z,37.75
2019-02-18T18:17:47.077Z,37.67
2019-02-18T18:20:16.271Z,37.53
2019-02-18T18:22:45.682Z,37.51
2019-02-18T18:25:15.599Z,37.53
2019-02-18T18:27:45.146Z,37.44
2019-02-18T18:30:14.995Z,37.42
2019-02-18T18:32:45.343Z,37.30
2019-02-18T18:35:15.074Z,37.29
2019-02-18T18:37:45.027Z,37.38
2019-02-18T18:40:14.909Z,37.37
2019-02-18T18:42:44.789Z,37.33
2019-02-18T18:45:15.722Z,37.37
2019-02-18T18:47:45.808Z,37.27
2019-02-18T18:50:16.325Z,37.24
2019-02-18T18:52:45.640Z,37.30
2019-02-18T18:55:14.712Z,37.18
2019-02-18T18:57:44.070Z,37.26
2019-02-18T19:00:15.483Z,37.37
2019-02-18T19:02:44.713Z,37.54
2019-02-18T19:05:14.283Z,37.76
2019-02-18T19:07:44.463Z,37.60
2019-02-18T19:10:14.083Z,37.43
2019-02-18T19:12:44.001Z,37.36
2019-02-18T19:15:14.009Z,37.30
2019-02-18T19:17:44.025Z,37.28
2019-02-18T19:20:14.371Z,37.27
2019-02-18T19:22:43.921Z,37.36
2019-02-18T19:25:14.010Z,37.41
2019-02-18T19:27:43.844Z,37.59
2019-02-18T19:30:15.264Z,37.57
2019-02-18T19:32:45.331Z,37.42
2019-02-18T19:35:14.629Z,37.37
2019-02-18T19:37:44.245Z,37.31
2019-02-18T19:40:14.904Z,37.41
2019-02-18T19:42:45.088Z,37.54
2019-02-18T19:45:18.239Z,37.39
2019-02-18T19:47:48.445Z,38.03
2019-02-18T19:50:18.404Z,37.74
2019-02-18T19:52:48.087Z,37.73
2019-02-18T19:55:17.297Z,37.73
2019-02-18T19:57:47.093Z,37.74
2019-02-18T20:00:18.226Z,37.74
2019-02-18T20:02:48.036Z,37.75
2019-02-18T20:05:18.623Z,37.62
2019-02-18T20:07:49.364Z,37.59
2019-02-18T20:10:19.008Z,37.58
2019-02-18T20:12:49.836Z,37.52
2019-02-18T20:15:21.656Z,37.64
2019-02-18T20:17:51.828Z,37.72
2019-02-18T20:20:21.960Z,37.76
2019-02-18T20:22:52.275Z,37.85
2019-02-18T20:25:22.204Z,37.82
2019-02-18T20:27:52.300Z,37.62
2019-02-18T20:30:22.372Z,37.61
2019-02-18T20:32:51.753Z,37.62
2019-02-18T20:35:21.706Z,37.73
2019-02-18T20:37:51.982Z,37.52
2019-02-18T20:40:21.837Z,37.59
2019-02-18T20:42:51.858Z,37.67
2019-02-18T20:45:22.122Z,37.61
2019-02-18T20:47:52.008Z,37.70
2019-02-18T20:50:21.779Z,37.66
2019-02-18T20:52:52.164Z,37.67
2019-02-18T20:55:22.617Z,37.62
2019-02-18T20:57:52.564Z,37.54
2019-02-18T21:00:21.826Z,37.61
2019-02-18T21:02:51.596Z,37.59
2019-02-18T21:05:23.494Z,37.61
2019-02-18T21:07:53.841Z,37.65
2019-02-18T21:10:24.153Z,37.75
2019-02-18T21:12:57.910Z,37.65
2019-02-18T21:15:27.849Z,37.78
2019-02-18T21:17:57.432Z,37.59
2019-02-18T21:20:26.953Z,37.62
2019-02-18T21:22:56.967Z,37.62
2019-02-18T21:25:27.104Z,37.70
2019-02-18T21:27:57.049Z,37.67
2019-02-18T21:30:26.987Z,37.80
2019-02-18T21:32:56.335Z,37.83
2019-02-18T21:35:25.636Z,37.84
2019-02-18T21:37:55.131Z,37.84
2019-02-18T21:40:26.206Z,37.90
2019-02-18T21:42:55.793Z,38.04
2019-02-18T21:45:24.798Z,38.05
2019-02-18T21:47:53.927Z,38.44
2019-02-18T21:50:23.173Z,38.35
2019-02-18T21:52:52.181Z,38.12
2019-02-18T21:55:21.104Z,38.05
2019-02-18T21:57:50.060Z,38.12
2019-02-18T22:00:20.564Z,38.05
2019-02-18T22:02:49.454Z,38.09
2019-02-18T22:05:18.594Z,38.08
2019-02-18T22:07:47.512Z,38.10
2019-02-18T22:10:16.557Z,38.07
2019-02-18T22:12:45.596Z,38.11
2019-02-18T22:15:14.563Z,38.17
2019-02-18T22:17:43.651Z,38.18
2019-02-18T22:20:13.171Z,38.17
2019-02-18T22:22:42.121Z,38.20
2019-02-18T22:25:11.105Z,38.29
2019-02-18T22:27:40.024Z,38.24
2019-02-18T22:30:10.069Z,38.30
2019-02-18T22:32:39.017Z,38.34
2019-02-18T22:35:08.026Z,38.31
2019-02-18T22:37:37.138Z,38.36
2019-02-18T22:40:06.284Z,38.36
2019-02-18T22:42:35.136Z,38.34
2019-02-18T22:45:04.076Z,38.40
2019-02-18T22:47:32.944Z,38.45
2019-02-18T22:50:01.933Z,38.45
2019-02-18T22:52:31.245Z,38.46
2019-02-18T22:55:00.206Z,38.49
2019-02-18T22:57:29.191Z,38.46
2019-02-18T22:59:58.097Z,38.49
2019-02-18T23:02:27.012Z,38.52
2019-02-18T23:04:55.912Z,38.53
2019-02-18T23:07:24.781Z,38.52
2019-02-18T23:09:53.768Z,38.53
2019-02-18T23:12:22.731Z,38.55
2019-02-18T23:14:51.545Z,38.55
2019-02-18T23:17:20.354Z,38.64
2019-02-18T23:19:49.238Z,38.63
2019-02-18T23:22:18.039Z,38.60
2019-02-18T23:24:47.068Z,38.54
2019-02-18T23:27:15.887Z,38.56
2019-02-18T23:29:44.754Z,38.59
2019-02-18T23:32:13.668Z,38.62
2019-02-18T23:34:42.755Z,38.63
2019-02-18T23:37:11.674Z,38.76
2019-02-18T23:39:40.438Z,38.63
2019-02-18T23:42:09.511Z,38.65
2019-02-18T23:44:38.417Z,38.64
2019-02-18T23:47:07.223Z,38.70
2019-02-18T23:49:36.146Z,38.73
2019-02-18T23:52:05.077Z,38.72
2019-02-18T23:54:33.961Z,38.78
2019-02-18T23:57:02.857Z,38.68
2019-02-18T23:59:31.800Z,38.63
